Date,TemperatureHighF,TemperatureAvgF,TemperatureLowF,DewpointHighF,DewpointAvgF,DewpointLowF,HumidityHigh,HumidityAvg,HumidityLow,PressureMaxIn,PressureMinIn,WindSpeedMaxMPH,WindSpeedAvgMPH,GustSpeedMaxMPH,PrecipitationSumIn
2013-8-11,88,60,67,69,32,-100,98,62,50,29.93,29.92,3,-210,0,0.00
2013-8-12,87,74,63,71,67,63,99,80,54,29.93,29.79,7,2,0,0.00
2013-8-13,77,70,57,69,61,48,99,75,51,30.04,29.80,11,5,0,0.00
2013-8-14,74,60,47,53,50,47,99,72,41,30.10,30.02,10,3,0,0.00
2013-8-15,73,61,49,57,54,49,99,79,48,30.05,29.96,5,1,0,0.00
2013-8-16,78,64,53,58,55,52,99,75,41,30.02,29.98,10,3,0,0.00
2013-8-17,83,70,56,61,58,56,99,72,45,30.04,29.95,9,2,0,0.00
2013-8-18,86,71,57,65,60,57,99,73,42,30.02,29.92,9,2,0,0.00
2013-8-19,87,72,57,68,62,56,99,75,44,29.97,29.88,5,1,0,0.00
2013-8-20,89,74,59,71,65,59,99,77,46,29.98,29.89,7,2,0,0.00
2013-8-21,91,76,64,73,68,63,99,80,48,29.98,29.87,7,2,0,0.00
2013-8-22,89,76,66,72,69,65,99,82,55,29.93,29.84,11,3,0,0.00
2013-8-23,87,76,65,68,67,64,99,77,49,29.96,29.89,8,3,0,0.00
2013-8-24,90,73,58,64,60,56,99,70,32,30.09,29.97,7,2,0,0.00
2013-8-25,90,72,55,66,60,55,99,72,35,30.13,30.01,7,2,0,0.00
2013-8-26,89,76,61,74,69,61,99,82,53,30.05,29.88,7,2,0,0.00
2013-8-27,93,80,70,76,73,70,99,82,53,29.90,29.78,10,3,0,0.00
2013-8-28,95,83,73,76,73,70,98,74,50,29.80,29.73,15,5,0,0.00
2013-8-29,92,80,70,74,70,66,99,77,44,29.87,29.79,6,3,0,0.00
2013-8-30,95,79,64,76,70,64,99,78,49,29.82,29.65,8,2,0,0.00
2013-8-31,96,79,70,78,73,68,99,84,52,29.70,29.56,13,3,0,1.42
2013-9-1,86,75,66,74,71,66,99,88,67,29.67,29.59,9,3,0,0.00
2013-9-2,87,75,66,72,68,63,99,83,49,29.79,29.65,10,3,0,0.00
2013-9-3,78,67,55,63,56,53,99,71,45,29.95,29.79,10,4,0,0.00
2013-9-4,85,67,51,63,58,51,99,77,44,30.03,29.93,6,2,0,0.00
2013-9-5,87,72,57,68,62,57,99,76,42,30.07,30.00,6,1,0,0.00
2013-9-6,87,71,57,68,61,53,99,72,43,30.09,29.94,6,2,0,0.00
2013-9-7,88,72,59,70,62,-100,99,78,50,29.95,29.86,9,-18,0,0.00
2013-9-8,87,76,67,76,71,66,99,87,61,29.94,29.87,6,2,0,0.03
2013-9-9,92,78,65,75,71,65,99,80,52,29.97,29.86,14,3,0,0.00
2013-9-10,96,81,72,77,74,71,99,81,44,30.06,29.94,14,4,0,0.18
2013-9-11,96,81,71,76,71,66,99,77,39,30.07,29.92,8,4,0,0.00
2013-9-12,84,75,67,73,68,52,99,81,47,29.95,29.79,10,4,0,0.17
2013-9-13,71,61,51,55,49,44,96,67,40,30.04,29.91,15,5,0,0.00
2013-9-14,77,56,42,51,44,-100,99,72,32,30.12,29.90,7,-9,0,0.00
2013-9-15,79,61,42,60,50,42,99,73,40,29.96,29.82,10,2,0,0.00
2013-9-16,71,63,52,60,56,52,99,78,59,30.09,29.89,10,4,0,0.00
2013-9-17,80,62,50,56,53,49,99,75,41,30.11,29.89,8,2,0,0.00
2013-9-18,82,67,55,68,62,55,99,84,58,29.91,29.78,9,2,0,0.00
2013-9-19,83,71,65,73,69,65,99,93,71,29.87,29.69,11,4,0,2.54
2013-9-20,79,72,67,72,70,67,99,93,76,29.74,29.64,10,3,0,0.43
2013-9-21,73,62,51,66,54,47,99,79,41,29.79,29.62,13,4,0,0.28
2013-9-22,72,56,44,54,49,43,99,80,44,29.91,29.77,9,2,0,0.00
2013-9-23,75,57,43,53,48,43,99,77,41,29.99,29.89,9,2,0,0.00
2013-9-24,82,62,46,63,54,45,99,81,49,29.95,29.76,9,2,0,0.00
2013-9-25,82,67,55,62,58,54,99,78,46,29.81,29.74,7,2,0,0.00
2013-9-26,81,63,48,59,54,47,99,77,39,29.97,29.82,7,2,0,0.00
2013-9-27,83,64,49,60,55,49,99,76,38,30.07,29.96,6,1,0,0.00
2013-9-28,83,65,48,62,57,48,99,79,47,30.05,29.90,8,2,0,0.00
2013-9-29,66,62,56,65,61,55,99,99,92,29.94,29.86,7,2,0,0.55
2013-9-30,72,65,58,66,63,58,99,94,80,29.91,29.81,8,2,0,0.05
2013-10-1,81,65,55,67,62,55,99,92,60,29.96,29.88,8,2,0,0.00
2013-10-2,79,69,62,71,67,61,99,93,71,29.99,29.91,6,2,0,0.00
2013-10-3,83,72,66,71,68,66,99,87,58,29.95,29.84,12,4,0,0.02
2013-10-4,83,71,64,74,69,63,99,94,72,29.97,29.87,10,2,0,0.23
2013-10-5,74,70,66,73,70,66,99,99,94,29.92,29.79,7,3,0,1.23
2013-10-6,63,56,45,57,52,43,99,88,71,29.76,29.63,12,4,0,0.58
2013-10-7,66,53,44,52,47,44,99,81,58,30.06,29.74,9,3,0,0.00
2013-10-8,73,56,41,55,48,40,99,79,41,30.17,30.06,6,2,0,0.00
2013-10-9,76,56,41,56,49,41,99,81,43,30.15,30.04,6,1,0,0.00
2013-10-10,77,58,43,58,51,43,99,82,47,30.09,29.96,5,1,0,0.00
2013-10-11,79,59,42,57,50,42,99,78,38,30.01,29.89,5,1,0,0.00
2013-10-12,80,62,45,65,56,45,99,83,50,30.00,29.91,10,1,0,0.00
2013-10-13,72,62,49,64,49,40,99,67,32,30.23,30.00,10,4,0,0.00
2013-10-14,72,55,41,52,46,41,99,76,38,30.24,30.04,8,2,0,0.00
2013-10-15,67,58,47,65,57,47,99,97,85,30.04,29.77,7,2,0,0.04
2013-10-16,66,57,42,64,51,41,99,81,54,29.86,29.75,10,3,0,0.04
2013-10-17,59,46,39,50,44,38,99,92,60,29.85,29.77,8,2,0,0.12
2013-10-18,67,51,41,50,44,41,99,82,46,29.87,29.79,16,4,0,0.00
2013-10-19,57,45,39,44,41,37,99,87,50,29.85,29.75,9,3,0,0.37
2013-10-20,65,51,38,45,41,38,99,73,45,29.87,29.79,20,6,0,0.00
2013-10-21,61,51,42,48,44,32,99,79,60,29.89,29.77,12,4,0,0.00
2013-10-22,54,42,31,42,34,29,99,78,41,29.93,29.67,9,3,0,0.03
2013-10-23,49,41,35,42,35,30,99,82,50,29.95,29.63,9,5,0,0.20
2013-10-24,42,37,34,38,34,29,97,88,79,30.19,29.94,10,4,0,0.01
2013-10-25,51,38,29,32,28,24,99,69,36,30.35,30.16,13,3,0,0.00
2013-10-26,59,43,30,42,33,28,94,69,53,30.15,29.81,16,5,0,0.00
2013-10-27,59,42,28,38,33,27,99,77,37,30.01,29.91,10,2,0,0.00
2013-10-28,63,42,25,41,34,25,99,78,33,30.18,29.96,7,1,0,0.00
2013-10-29,56,44,32,49,41,32,99,89,66,30.24,30.07,3,0,0,0.10
2013-10-30,65,57,50,64,57,49,99,99,96,30.06,29.82,6,2,0,0.29
2013-10-31,66,62,57,66,61,57,99,97,89,29.83,29.16,17,7,0,2.65
2013-11-1,62,53,47,56,47,43,99,83,55,29.64,29.29,14,6,0,0.01
2013-11-2,56,48,41,44,40,36,99,78,51,30.01,29.63,14,5,0,0.00
2013-11-3,56,42,30,42,36,30,99,82,46,30.21,30.01,7,1,0,0.00
2013-11-4,56,46,34,44,40,34,99,80,60,30.23,30.13,7,2,0,0.00
2013-11-5,62,52,44,50,46,43,99,81,58,30.26,30.01,9,2,0,0.02
2013-11-6,62,54,42,57,49,40,99,85,59,30.01,29.81,16,7,0,0.53
2013-11-7,50,42,32,39,31,26,96,68,39,30.21,30.03,16,5,0,0.00
2013-11-8,54,44,28,34,31,27,99,63,36,30.25,30.07,8,2,0,0.00
2013-11-9,63,51,42,43,37,28,72,57,47,30.06,29.87,16,7,0,0.00
2013-11-10,51,42,29,38,33,28,99,70,48,30.24,30.01,11,4,0,0.00
2013-11-11,52,40,28,43,35,28,99,86,53,30.23,29.98,14,5,0,0.05
2013-11-12,37,31,25,31,25,22,99,79,59,30.55,30.25,11,6,0,0.00
2013-11-13,40,30,18,23,20,17,99,71,39,30.54,30.25,11,4,0,0.00
2013-11-14,55,41,30,24,22,18,72,49,24,30.24,29.98,21,6,0,0.00
2013-11-15,55,46,37,36,28,22,95,52,40,30.01,29.91,10,4,0,0.00
2013-11-16,63,54,38,61,51,37,99,92,74,29.93,29.62,20,6,0,0.08
2013-11-17,68,60,51,65,56,42,99,86,57,29.70,29.27,21,9,0,1.67
2013-11-18,52,46,36,43,34,27,85,66,44,30.10,29.70,19,7,0,0.00
2013-11-19,44,34,27,31,29,26,99,81,57,30.25,30.10,9,3,0,0.00
2013-11-20,51,38,25,35,30,25,99,77,51,30.20,30.04,8,2,0,0.00
2013-11-21,55,48,43,51,45,35,99,89,61,30.15,30.05,5,2,0,0.22
2013-11-22,51,45,34,51,43,32,99,94,84,30.31,30.04,14,6,0,0.08
2013-11-23,33,28,20,32,21,11,99,78,59,30.52,30.30,17,6,0,0.00
2013-11-24,28,20,12,16,12,10,99,71,47,30.62,30.40,8,3,0,0.00
2013-11-25,34,28,14,25,18,13,99,67,47,30.40,30.05,11,4,0,0.00
2013-11-26,37,34,30,30,27,25,94,78,65,30.09,29.84,12,4,0,0.00
2013-11-27,31,23,17,26,16,12,85,74,52,30.19,29.89,14,6,0,0.00
2013-11-28,38,25,16,21,16,13,97,71,42,30.34,30.12,12,4,0,0.00
2013-11-29,41,27,14,25,20,14,99,80,49,30.52,30.34,7,2,0,0.00
2013-11-30,54,36,22,31,26,20,99,69,33,30.38,30.01,14,3,0,0.00
2013-12-1,55,43,32,39,33,27,99,70,54,30.01,29.83,9,3,0,0.00
2013-12-2,51,41,32,43,38,32,99,90,68,29.83,29.62,5,1,0,0.01
2013-12-3,52,43,32,50,42,32,99,98,93,29.70,29.61,7,1,0,0.01
2013-12-4,64,53,40,60,52,40,99,98,88,29.68,29.49,10,3,0,0.01
2013-12-5,63,39,24,60,37,24,99,92,82,30.11,29.59,17,6,0,0.05
2013-12-6,28,24,22,25,23,19,99,96,85,30.34,30.08,11,4,0,0.00
2013-12-7,31,18,9,19,13,8,99,83,49,30.54,30.35,10,4,0,0.00
2013-12-8,29,24,15,29,22,14,99,90,81,30.40,29.87,11,4,0,0.00
2013-12-9,30,26,21,30,23,16,99,87,65,30.14,29.87,14,5,0,0.00
2013-12-10,30,21,11,20,15,10,99,79,50,30.23,30.06,16,5,0,0.00
2013-12-11,34,18,6,23,14,5,99,85,62,30.45,30.19,12,4,0,0.00
2013-12-12,24,12,-2,6,1,-3,96,64,33,30.48,30.19,14,4,0,0.00
2013-12-13,38,27,14,32,19,6,99,72,52,30.21,29.97,14,4,0,0.04
2013-12-14,37,33,28,37,32,28,99,99,97,29.98,29.59,12,3,0,1.04
2013-12-15,29,25,21,29,21,15,99,87,70,30.01,29.83,14,6,0,0.01
2013-12-16,32,26,21,28,25,21,99,97,84,30.00,29.86,6,2,0,0.00
2013-12-17,32,27,23,28,25,22,99,94,76,30.05,29.89,17,5,0,0.00
2013-12-18,41,30,16,23,19,16,99,67,37,30.16,29.86,12,6,0,0.02
2013-12-19,53,47,35,48,38,22,83,72,55,29.90,29.75,12,7,0,0.01
2013-12-20,61,57,52,60,54,48,99,92,80,29.74,29.61,14,8,0,1.75
2013-12-21,52,43,39,52,43,39,99,99,99,29.67,29.29,10,4,0,4.22
2013-12-22,49,39,32,49,39,32,99,99,95,29.97,29.25,19,7,0,0.07
2013-12-23,32,26,17,32,23,10,99,88,72,30.33,29.98,11,5,0,0.00
2013-12-24,22,14,7,14,9,3,92,78,61,30.49,30.33,16,4,0,0.00
2013-12-25,31,25,19,26,19,14,86,76,66,30.35,30.07,11,6,0,0.00
2013-12-26,39,32,23,30,26,22,94,77,55,30.27,30.05,9,5,0,0.00
2013-12-27,49,38,30,34,30,25,89,76,57,30.28,30.14,10,5,0,0.00
2013-12-28,55,42,34,37,33,30,94,71,43,30.14,29.84,13,5,0,0.00
2013-12-29,47,37,27,37,32,26,99,84,62,29.97,29.70,16,5,0,0.00
2013-12-30,27,22,19,26,16,12,98,78,62,30.19,29.98,9,4,0,0.00
2013-12-31,34,27,21,22,17,13,78,68,53,30.27,30.06,13,5,0,0.00
2014-1-1,45,37,20,32,30,20,99,76,59,30.13,29.90,7,2,0,0.00
2014-1-2,32,19,10,31,16,3,99,88,71,30.23,29.78,18,6,0,0.00